Time;durP1;ratioP1;P1;durP2;ratioP2;P2;SDS_P1;SDS_P2;PMS_P1;PMS_P2;Temp;Humidity;BMP_temperature;BMP_pressure;BME280_temperature;BME280_humidity;BME280_pressure;Samples;Min_cycle;Max_cycle;Signal;HPM_P1;HPM_P2
2024/01/11 00:00:45;;;;;;;139.80;66.50;;;;;;;-6.57;75.19;100929.03;103249;1254;109149;-64
2024/01/11 00:03:32;;;;;;;133.00;66.10;;;;;;;-6.58;75.34;100914.81;100783;1254;1003532;-64
2024/01/11 00:05:59;;;;;;;138.30;67.90;;;;;;;-6.60;75.24;100914.56;103246;1256;96495;-64
2024/01/11 00:08:26;;;;;;;144.60;68.60;;;;;;;-6.60;75.29;100903.70;103204;1258;108829;-63
2024/01/11 00:10:53;;;;;;;133.30;66.30;;;;;;;-6.63;75.42;100908.15;102321;1255;1003564;-62
2024/01/11 00:13:22;;;;;;;136.40;65.90;;;;;;;-6.66;75.32;100902.25;103074;1256;110583;-63
2024/01/11 00:15:48;;;;;;;138.50;67.70;;;;;;;-6.69;75.45;100893.16;103064;1256;138212;-63
2024/01/11 00:18:17;;;;;;;139.40;64.90;;;;;;;-6.72;75.63;100893.67;101624;1255;1003250;-63
2024/01/11 00:20:44;;;;;;;129.20;60.50;;;;;;;-6.73;75.55;100900.39;103040;1258;140716;-64
2024/01/11 00:23:12;;;;;;;126.70;60.10;;;;;;;-6.74;75.65;100902.21;103102;1256;96470;-63
2024/01/11 00:25:38;;;;;;;123.30;57.00;;;;;;;-6.74;75.63;100906.29;103172;1256;108892;-63
2024/01/11 00:28:06;;;;;;;122.20;57.00;;;;;;;-6.73;75.63;100905.30;103029;1255;139009;-64
2024/01/11 00:30:33;;;;;;;113.90;55.80;;;;;;;-6.71;75.97;100899.98;103346;1256;96485;-65
2024/01/11 00:33:00;;;;;;;117.90;57.50;;;;;;;-6.64;75.84;100902.35;103026;1258;140116;-65
2024/01/11 00:35:27;;;;;;;120.90;59.00;;;;;;;-6.56;75.75;100901.20;103125;1258;96550;-64
2024/01/11 00:37:56;;;;;;;127.00;61.10;;;;;;;-6.52;75.74;100909.15;103081;1256;110518;-63
2024/01/11 00:40:22;;;;;;;130.50;60.70;;;;;;;-6.50;75.63;100913.50;103072;1255;138568;-63
2024/01/11 00:42:49;;;;;;;135.70;63.50;;;;;;;-6.51;75.77;100908.88;103168;1259;96465;-64
2024/01/11 00:45:16;;;;;;;127.00;61.40;;;;;;;-6.48;75.43;100900.38;103021;1258;138292;-63
2024/01/11 00:47:43;;;;;;;125.40;62.80;;;;;;;-6.48;75.43;100903.61;103168;1256;96354;-63
2024/01/11 00:50:11;;;;;;;134.80;65.30;;;;;;;-6.50;75.46;100913.66;103224;1257;108240;-65
2024/01/11 00:52:38;;;;;;;134.20;64.30;;;;;;;-6.50;75.41;100926.02;103751;1255;138936;-65
2024/01/11 00:55:07;;;;;;;128.20;63.40;;;;;;;-6.56;75.59;100930.78;103138;1256;96978;-63
2024/01/11 00:57:33;;;;;;;131.20;63.50;;;;;;;-6.61;75.61;100926.15;103192;1258;139675;-63
2024/01/11 01:00:00;;;;;;;123.00;58.30;;;;;;;-6.65;75.66;100910.23;103068;1258;98611;-63
2024/01/11 01:02:27;;;;;;;115.30;58.60;;;;;;;-6.65;75.93;100903.29;103193;1256;109588;-62
2024/01/11 01:04:54;;;;;;;112.20;54.40;;;;;;;-6.67;75.75;100895.05;102297;1258;1003338;-62
2024/01/11 01:07:21;;;;;;;118.80;54.90;;;;;;;-6.67;76.02;100886.14;102471;1256;1003584;-64
2024/01/11 01:09:48;;;;;;;107.70;52.30;;;;;;;-6.63;76.12;100888.50;102267;1255;1002978;-63
2024/01/11 01:12:14;;;;;;;102.70;51.30;;;;;;;-6.63;76.11;100898.02;103177;1256;96450;-64
2024/01/11 01:14:41;;;;;;;106.10;50.90;;;;;;;-6.60;76.35;100896.59;103070;1256;139675;-65
2024/01/11 01:17:08;;;;;;;107.00;53.10;;;;;;;-6.56;76.42;100896.63;103151;1258;108295;-64
2024/01/11 01:19:36;;;;;;;106.70;53.20;;;;;;;-6.53;76.41;100893.02;103226;1256;98116;-64
2024/01/11 01:22:04;;;;;;;101.70;51.70;;;;;;;-6.51;76.30;100891.61;103203;1258;138116;-64
2024/01/11 01:24:31;;;;;;;107.80;52.50;;;;;;;-6.52;76.52;100886.00;103308;1258;96461;-65
2024/01/11 01:26:58;;;;;;;101.70;49.80;;;;;;;-6.45;76.76;100895.64;103115;1255;138350;-64
2024/01/11 01:29:25;;;;;;;102.60;50.50;;;;;;;-6.46;76.54;100878.69;102677;1255;1003317;-64
2024/01/11 01:31:52;;;;;;;102.20;51.90;;;;;;;-6.39;76.82;100884.40;103675;1256;98135;-65
2024/01/11 01:34:19;;;;;;;100.30;48.40;;;;;;;-6.39;76.82;100902.15;103266;1258;138159;-65
2024/01/11 01:36:46;;;;;;;89.80;44.00;;;;;;;-6.40;76.99;100912.95;103464;1256;96615;-63
2024/01/11 01:39:13;;;;;;;86.40;42.60;;;;;;;-6.41;77.20;100894.67;102413;1256;1002867;-64
2024/01/11 01:41:40;;;;;;;89.20;43.20;;;;;;;-6.38;77.03;100873.26;103163;1258;109368;-63
2024/01/11 01:44:07;;;;;;;83.30;40.70;;;;;;;-6.35;77.16;100874.23;103768;1256;94846;-64
2024/01/11 01:46:35;;;;;;;77.40;39.70;;;;;;;-6.31;77.42;100888.47;104306;1255;139440;-64
2024/01/11 01:49:02;;;;;;;85.50;42.20;;;;;;;-6.24;77.45;100893.24;103361;1255;1003351;-65
2024/01/11 01:51:30;;;;;;;85.40;43.30;;;;;;;-6.17;77.35;100879.98;102232;1255;1003164;-63
2024/01/11 01:53:58;;;;;;;82.10;42.30;;;;;;;-6.14;77.40;100872.34;102405;1256;1002819;-64
2024/01/11 01:56:25;;;;;;;85.00;43.20;;;;;;;-6.15;77.55;100880.42;103192;1258;97125;-64
2024/01/11 01:58:54;;;;;;;88.80;44.50;;;;;;;-6.14;77.42;100884.17;102164;1257;1003566;-64
2024/01/11 02:01:21;;;;;;;86.00;43.40;;;;;;;-6.11;77.67;100881.45;103139;1256;96451;-63
2024/01/11 02:03:50;;;;;;;87.70;43.10;;;;;;;-6.08;77.75;100889.37;103135;1255;137874;-64
2024/01/11 02:06:17;;;;;;;85.00;42.40;;;;;;;-6.09;77.74;100882.55;103110;1258;107073;-63
2024/01/11 02:08:46;;;;;;;88.50;40.30;;;;;;;-6.10;77.83;100878.30;102918;1255;139480;-63
2024/01/11 02:11:14;;;;;;;78.70;38.80;;;;;;;-6.12;77.66;100889.70;103462;1256;106278;-63
2024/01/11 02:13:41;;;;;;;78.20;39.20;;;;;;;-6.14;77.85;100881.81;103069;1256;96367;-63
2024/01/11 02:16:08;;;;;;;79.00;39.10;;;;;;;-6.13;78.11;100866.96;102260;1256;1003193;-65
2024/01/11 02:18:35;;;;;;;77.00;39.30;;;;;;;-6.12;78.21;100865.32;102359;1256;1003640;-64
2024/01/11 02:21:07;;;;;;;78.00;39.50;;;;;;;-6.12;78.14;100874.94;103450;1256;139651;-64
2024/01/11 02:23:37;;;;;;;80.40;40.20;;;;;;;-6.08;78.15;100882.10;103057;1256;108765;-63
2024/01/11 02:26:04;;;;;;;79.80;41.30;;;;;;;-6.05;78.33;100871.73;103163;1258;96562;-64
2024/01/11 02:28:31;;;;;;;84.40;39.80;;;;;;;-6.00;78.50;100858.89;102354;1255;1003116;-63
2024/01/11 02:30:58;;;;;;;88.00;41.30;;;;;;;-5.99;78.48;100871.30;103177;1256;107173;-63
2024/01/11 02:33:25;;;;;;;83.10;41.40;;;;;;;-6.02;78.55;100863.39;102235;1256;1003066;-63
2024/01/11 02:35:53;;;;;;;84.20;39.20;;;;;;;-6.06;78.62;100863.03;103171;1256;108665;-65
2024/01/11 02:38:20;;;;;;;80.80;38.60;;;;;;;-6.07;78.87;100858.58;101604;1255;1003500;-64
2024/01/11 02:40:47;;;;;;;80.30;37.30;;;;;;;-6.05;78.75;100851.05;102962;1255;139291;-66
2024/01/11 02:43:14;;;;;;;74.50;37.60;;;;;;;-6.05;78.92;100848.36;103185;1254;107042;-63
2024/01/11 02:45:41;;;;;;;70.00;36.20;;;;;;;-6.01;79.09;100864.26;103125;1256;139156;-64
2024/01/11 02:48:08;;;;;;;73.50;34.90;;;;;;;-6.00;79.24;100852.62;103159;1255;107998;-63
2024/01/11 02:50:36;;;;;;;67.40;33.50;;;;;;;-5.96;79.18;100855.85;103092;1254;96546;-64
2024/01/11 02:53:03;;;;;;;71.10;36.30;;;;;;;-5.88;79.45;100865.86;103113;1255;110788;-64
2024/01/11 02:55:30;;;;;;;77.20;39.10;;;;;;;-5.80;79.16;100855.01;103100;1256;109921;-64
2024/01/11 02:57:56;;;;;;;85.30;39.50;;;;;;;-5.71;79.65;100847.94;103036;1258;137972;-64
2024/01/11 03:00:23;;;;;;;82.50;40.00;;;;;;;-5.66;79.26;100854.44;103196;1258;108348;-64
2024/01/11 03:02:50;;;;;;;82.30;38.70;;;;;;;-5.64;79.31;100862.95;103032;1258;138044;-65
2024/01/11 03:05:17;;;;;;;85.00;39.60;;;;;;;-5.66;79.43;100851.20;103136;1256;109699;-64
2024/01/11 03:07:44;;;;;;;82.10;40.00;;;;;;;-5.70;79.40;100842.40;103191;1256;107868;-64
2024/01/11 03:10:11;;;;;;;88.10;41.80;;;;;;;-5.73;79.18;100835.17;103062;1257;137999;-64
2024/01/11 03:12:40;;;;;;;88.50;39.90;;;;;;;-5.74;79.59;100824.92;103318;1256;106765;-64
2024/01/11 03:15:09;;;;;;;83.90;38.70;;;;;;;-5.78;79.61;100828.99;103039;1256;140194;-64
2024/01/11 03:17:36;;;;;;;83.40;36.60;;;;;;;-5.81;80.04;100834.96;103214;1258;109642;-64
2024/01/11 03:20:05;;;;;;;84.50;37.20;;;;;;;-5.82;80.16;100825.63;103337;1256;107164;-65
2024/01/11 03:22:32;;;;;;;84.80;37.70;;;;;;;-5.77;80.33;100826.50;103043;1258;139933;-65
2024/01/11 03:24:59;;;;;;;84.20;37.50;;;;;;;-5.74;80.28;100832.71;103150;1256;108644;-65
2024/01/11 03:27:26;;;;;;;80.80;37.50;;;;;;;-5.72;80.44;100826.90;103045;1256;138805;-65
2024/01/11 03:29:53;;;;;;;83.00;39.10;;;;;;;-5.69;80.64;100809.22;103189;1258;110712;-66
2024/01/11 03:32:20;;;;;;;92.10;42.30;;;;;;;-5.69;80.60;100817.05;103157;1259;107818;-65
2024/01/11 03:34:47;;;;;;;92.10;41.50;;;;;;;-5.66;80.80;100807.69;103087;1258;137991;-65
2024/01/11 03:37:14;;;;;;;90.90;42.50;;;;;;;-5.63;80.56;100786.46;103120;1256;109141;-64
2024/01/11 03:39:40;;;;;;;93.50;43.00;;;;;;;-5.62;80.49;100773.60;103000;1255;139885;-65
2024/01/11 03:42:07;;;;;;;89.00;41.30;;;;;;;-5.65;80.65;100763.50;103121;1256;109860;-65
2024/01/11 03:44:34;;;;;;;81.80;38.00;;;;;;;-5.67;80.55;100760.20;103121;1256;108546;-65
2024/01/11 03:47:01;;;;;;;83.80;41.00;;;;;;;-5.72;80.31;100757.11;103117;1258;96355;-65
2024/01/11 03:49:28;;;;;;;87.10;40.50;;;;;;;-5.74;80.56;100749.05;103147;1254;107829;-64
2024/01/11 03:51:55;;;;;;;86.50;40.70;;;;;;;-5.75;80.44;100742.06;103061;1258;140476;-64
2024/01/11 03:54:21;;;;;;;88.20;41.50;;;;;;;-5.75;80.62;100734.95;103169;1255;109862;-63
2024/01/11 03:56:49;;;;;;;86.70;41.20;;;;;;;-5.76;80.25;100732.05;102959;1255;139731;-66
2024/01/11 03:59:16;;;;;;;95.80;43.80;;;;;;;-5.81;80.43;100734.39;103169;1256;97031;-65
2024/01/11 04:01:44;;;;;;;87.60;41.70;;;;;;;-5.81;80.72;100733.02;102326;1255;1003018;-64
2024/01/11 04:04:11;;;;;;;90.50;42.40;;;;;;;-5.79;80.56;100729.40;103022;1256;139394;-64
2024/01/11 04:06:38;;;;;;;95.80;41.30;;;;;;;-5.80;80.53;100736.66;103199;1256;111290;-64
2024/01/11 04:09:06;;;;;;;85.20;41.60;;;;;;;-5.84;80.85;100737.81;103044;1255;139956;-64
2024/01/11 04:11:33;;;;;;;85.60;40.10;;;;;;;-5.87;80.86;100737.52;103125;1258;96469;-64
2024/01/11 04:14:00;;;;;;;87.60;41.00;;;;;;;-5.88;81.12;100733.23;103142;1256;107250;-64
2024/01/11 04:16:27;;;;;;;88.20;42.50;;;;;;;-5.86;81.50;100731.63;103003;1256;139622;-63
2024/01/11 04:18:54;;;;;;;95.10;42.90;;;;;;;-5.84;81.49;100735.28;102380;1258;1003526;-65
2024/01/11 04:21:28;;;;;;;92.30;43.20;;;;;;;-5.86;81.54;100732.30;103233;1256;138313;-65
2024/01/11 04:23:55;;;;;;;98.20;45.30;;;;;;;-5.87;81.69;100737.87;103673;1256;96461;-65
2024/01/11 04:26:22;;;;;;;100.90;45.90;;;;;;;-5.90;81.60;100743.38;102402;1256;1003591;-65
2024/01/11 04:28:50;;;;;;;97.90;44.90;;;;;;;-5.90;81.87;100737.25;103074;1256;140593;-65
2024/01/11 04:31:17;;;;;;;87.50;42.30;;;;;;;-5.93;82.17;100742.55;102354;1258;1003010;-66
2024/01/11 04:33:45;;;;;;;97.90;42.50;;;;;;;-5.94;82.44;100742.17;103080;1256;140370;-65
2024/01/11 04:36:13;;;;;;;98.40;44.40;;;;;;;-5.94;82.47;100741.32;103153;1256;96439;-65
2024/01/11 04:38:40;;;;;;;102.40;44.80;;;;;;;-5.97;82.78;100746.27;101614;1256;1003680;-66
2024/01/11 04:41:11;;;;;;;94.70;43.40;;;;;;;-6.01;82.91;100747.28;103102;1258;96444;-66
2024/01/11 04:43:40;;;;;;;97.00;41.70;;;;;;;-6.02;83.03;100749.12;103145;1256;109696;-66
2024/01/11 04:46:15;;;;;;;94.50;41.20;;;;;;;-6.00;83.43;100747.49;102994;1255;139152;-66
2024/01/11 04:48:42;;;;;;;89.60;39.00;;;;;;;-6.01;83.54;100735.79;103190;1256;96521;-66
2024/01/11 04:51:09;;;;;;;92.20;39.50;;;;;;;-6.00;83.94;100735.16;102319;1255;1002944;-66
2024/01/11 04:53:39;;;;;;;88.60;39.10;;;;;;;-5.98;83.94;100741.85;103132;1258;96579;-67
2024/01/11 04:56:09;;;;;;;89.60;39.90;;;;;;;-5.92;83.99;100746.45;103171;1258;109555;-66
2024/01/11 04:58:37;;;;;;;86.50;38.70;;;;;;;-5.85;84.13;100742.52;102980;1258;138281;-66
2024/01/11 05:01:05;;;;;;;92.00;39.80;;;;;;;-5.83;84.33;100740.23;103260;1256;96489;-65
2024/01/11 05:03:32;;;;;;;93.40;42.10;;;;;;;-5.81;84.12;100741.33;103008;1256;137709;-65
2024/01/11 05:05:59;;;;;;;97.80;41.60;;;;;;;-5.79;84.32;100741.05;103148;1256;96566;-66
2024/01/11 05:08:27;;;;;;;97.10;42.10;;;;;;;-5.76;84.20;100739.83;103176;1255;110402;-65
2024/01/11 05:10:54;;;;;;;108.90;44.50;;;;;;;-5.75;84.14;100737.15;102996;1258;138378;-65
2024/01/11 05:13:21;;;;;;;94.80;40.20;;;;;;;-5.76;84.38;100724.59;103148;1256;96472;-67
2024/01/11 05:15:48;;;;;;;81.70;37.50;;;;;;;-5.77;84.44;100722.02;103004;1256;138570;-66
2024/01/11 05:18:15;;;;;;;78.50;36.30;;;;;;;-5.76;84.58;100715.10;103079;1258;96450;-65
2024/01/11 05:20:43;;;;;;;76.00;35.40;;;;;;;-5.79;84.69;100706.19;103037;1256;139117;-66
2024/01/11 05:23:09;;;;;;;69.60;33.30;;;;;;;-5.69;84.80;100701.16;103099;1256;108143;-66
2024/01/11 05:25:37;;;;;;;68.80;32.30;;;;;;;-5.64;84.65;100693.74;103105;1256;96350;-67
2024/01/11 05:28:04;;;;;;;74.30;35.40;;;;;;;-5.63;84.63;100688.36;103264;1256;138205;-65
2024/01/11 05:30:31;;;;;;;72.40;35.10;;;;;;;-5.60;84.47;100690.86;103290;1258;96546;-66
2024/01/11 05:32:58;;;;;;;74.50;34.80;;;;;;;-5.58;84.46;100683.64;102459;1254;1002803;-66
2024/01/11 05:35:27;;;;;;;76.60;36.00;;;;;;;-5.60;84.46;100677.64;103148;1256;107129;-68
2024/01/11 05:37:55;;;;;;;73.50;35.20;;;;;;;-5.60;84.59;100677.48;103415;1257;96432;-67
2024/01/11 05:40:22;;;;;;;70.70;33.70;;;;;;;-5.63;84.74;100674.45;102945;1256;138200;-67
2024/01/11 05:42:49;;;;;;;68.60;33.10;;;;;;;-5.67;84.85;100676.02;103105;1256;96450;-66
2024/01/11 05:45:16;;;;;;;68.70;31.80;;;;;;;-5.69;84.65;100671.34;102984;1256;138767;-66
2024/01/11 05:47:48;;;;;;;58.10;30.40;;;;;;;-5.72;84.67;100670.09;103084;1256;107612;-66
2024/01/11 05:50:15;;;;;;;64.40;30.30;;;;;;;-5.73;84.94;100658.52;103128;1256;96465;-66
2024/01/11 05:52:42;;;;;;;60.50;28.80;;;;;;;-5.73;84.89;100656.98;103270;1258;138851;-66
2024/01/11 05:55:09;;;;;;;56.90;27.50;;;;;;;-5.70;85.16;100660.83;102388;1256;1002907;-67
2024/01/11 05:57:36;;;;;;;57.30;28.10;;;;;;;-5.70;85.17;100658.45;103013;1256;139829;-67
2024/01/11 06:00:04;;;;;;;54.60;27.20;;;;;;;-5.68;85.22;100654.45;102345;1256;1003434;-67
2024/01/11 06:02:32;;;;;;;56.90;28.90;;;;;;;-5.60;85.07;100646.83;102831;1256;1002554;-68
2024/01/11 06:04:59;;;;;;;57.90;28.00;;;;;;;-5.54;85.36;100641.63;102984;1258;138721;-67
2024/01/11 06:07:26;;;;;;;63.10;29.90;;;;;;;-5.49;85.11;100637.08;103126;1256;96585;-68
2024/01/11 06:09:53;;;;;;;60.10;30.40;;;;;;;-5.49;84.65;100638.80;103104;1257;139516;-67
2024/01/11 06:12:20;;;;;;;63.30;29.50;;;;;;;-5.49;84.57;100635.21;103125;1255;108141;-67
2024/01/11 06:14:47;;;;;;;62.80;30.80;;;;;;;-5.51;84.73;100628.38;103076;1256;138459;-66
2024/01/11 06:17:14;;;;;;;53.10;26.60;;;;;;;-5.53;84.87;100631.69;103119;1256;108520;-67
2024/01/11 06:19:41;;;;;;;54.00;26.40;;;;;;;-5.55;84.61;100632.30;103145;1258;96535;-66
2024/01/11 06:22:08;;;;;;;53.60;25.80;;;;;;;-5.57;84.66;100632.38;103038;1256;139265;-67
2024/01/11 06:24:35;;;;;;;50.70;24.50;;;;;;;-5.52;84.87;100629.00;103158;1256;107126;-67
2024/01/11 06:27:02;;;;;;;44.70;22.90;;;;;;;-5.49;84.70;100623.21;103059;1255;139239;-67
2024/01/11 06:29:29;;;;;;;48.30;23.30;;;;;;;-5.41;84.85;100622.77;103149;1255;107949;-69
2024/01/11 06:31:56;;;;;;;48.90;24.60;;;;;;;-5.40;84.52;100617.25;103422;1256;96566;-67
2024/01/11 06:34:23;;;;;;;52.40;25.90;;;;;;;-5.38;84.72;100619.87;102996;1257;138236;-67
2024/01/11 06:36:50;;;;;;;51.60;25.20;;;;;;;-5.34;84.65;100612.59;103110;1256;108517;-68
2024/01/11 06:39:17;;;;;;;55.00;25.90;;;;;;;-5.32;84.32;100611.95;102387;1256;1002688;-68
2024/01/11 06:41:44;;;;;;;50.40;24.40;;;;;;;-5.31;84.40;100608.45;102421;1257;1002537;-67
2024/01/11 06:44:11;;;;;;;52.50;26.00;;;;;;;-5.30;84.59;100609.66;102264;1259;1003529;-68
2024/01/11 06:46:39;;;;;;;48.40;23.60;;;;;;;-5.34;84.72;100600.86;102966;1255;138149;-67
2024/01/11 06:49:06;;;;;;;49.90;24.00;;;;;;;-5.31;84.92;100599.95;102941;1256;108028;-68
2024/01/11 06:51:33;;;;;;;47.00;23.60;;;;;;;-5.34;85.05;100596.65;103952;1256;139414;-68
2024/01/11 06:54:01;;;;;;;50.20;23.20;;;;;;;-5.35;85.47;100604.91;102986;1259;108346;-67
2024/01/11 06:56:29;;;;;;;44.60;22.40;;;;;;;-5.34;85.86;100608.85;103038;1256;96447;-69
2024/01/11 06:58:57;;;;;;;49.60;24.20;;;;;;;-5.33;85.78;100611.08;103712;1257;139469;-68
2024/01/11 07:01:23;;;;;;;48.60;23.40;;;;;;;-5.32;86.07;100604.67;102290;1257;1003015;-68
2024/01/11 07:03:51;;;;;;;52.90;22.60;;;;;;;-5.31;86.27;100605.55;102897;1258;138968;-68
2024/01/11 07:06:17;;;;;;;49.30;23.40;;;;;;;-5.30;86.68;100603.40;103059;1258;107697;-67
2024/01/11 07:08:45;;;;;;;48.10;23.70;;;;;;;-5.26;86.45;100603.04;103056;1256;139875;-68
2024/01/11 07:11:12;;;;;;;48.00;22.70;;;;;;;-5.20;87.21;100604.27;103051;1260;109771;-67
2024/01/11 07:13:39;;;;;;;51.20;23.90;;;;;;;-5.18;87.12;100591.64;103092;1256;107276;-68
2024/01/11 07:16:06;;;;;;;52.00;23.50;;;;;;;-5.16;87.40;100592.06;103059;1256;138716;-67
2024/01/11 07:18:33;;;;;;;48.40;24.10;;;;;;;-5.14;87.64;100589.08;103490;1256;107911;-67
2024/01/11 07:21:01;;;;;;;60.60;23.40;;;;;;;-5.12;87.56;100578.80;103021;1258;139802;-67
2024/01/11 07:23:28;;;;;;;59.30;24.70;;;;;;;-5.12;87.59;100582.02;103146;1258;112030;-67
2024/01/11 07:25:56;;;;;;;55.10;22.90;;;;;;;-5.11;87.94;100582.04;103047;1256;108300;-67
2024/01/11 07:28:25;;;;;;;57.90;24.40;;;;;;;-5.09;88.18;100582.95;102973;1258;138942;-68
2024/01/11 07:30:53;;;;;;;57.80;25.40;;;;;;;-5.09;88.26;100577.55;103009;1262;107333;-67
2024/01/11 07:33:20;;;;;;;60.30;25.30;;;;;;;-5.08;88.28;100584.19;102972;1259;139307;-67
2024/01/11 07:35:48;;;;;;;58.50;25.40;;;;;;;-5.06;88.47;100588.50;103100;1256;110927;-68
2024/01/11 07:38:15;;;;;;;68.20;25.70;;;;;;;-5.06;88.41;100576.64;103069;1255;108669;-66
2024/01/11 07:40:42;;;;;;;60.10;23.90;;;;;;;-5.05;88.43;100567.16;102897;1256;139042;-68
2024/01/11 07:43:10;;;;;;;62.10;24.60;;;;;;;-5.04;88.57;100573.14;102202;1261;1003103;-67
2024/01/11 07:45:37;;;;;;;62.90;26.30;;;;;;;-5.04;88.72;100567.21;102962;1258;139191;-67
2024/01/11 07:48:05;;;;;;;62.90;26.00;;;;;;;-5.02;89.21;100574.77;103113;1258;111892;-66
2024/01/11 07:50:32;;;;;;;62.00;27.10;;;;;;;-5.01;89.03;100572.76;103610;1255;1002775;-67
2024/01/11 07:52:59;;;;;;;57.70;23.40;;;;;;;-4.98;89.34;100576.27;103383;1256;138550;-66
2024/01/11 07:55:26;;;;;;;57.20;24.70;;;;;;;-4.97;89.20;100579.15;103084;1258;108689;-67
2024/01/11 07:57:54;;;;;;;58.00;24.20;;;;;;;-4.94;89.21;100584.17;103022;1256;138726;-68
2024/01/11 08:00:22;;;;;;;56.00;23.90;;;;;;;-4.85;89.45;100598.92;103078;1259;112186;-67
2024/01/11 08:02:49;;;;;;;62.20;26.40;;;;;;;-4.79;89.47;100592.70;103480;1256;139518;-68
2024/01/11 08:05:16;;;;;;;54.70;24.50;;;;;;;-4.72;89.53;100593.77;103077;1256;98429;-68
2024/01/11 08:07:43;;;;;;;58.50;25.10;;;;;;;-4.69;89.81;100583.55;102978;1258;107472;-68
2024/01/11 08:10:11;;;;;;;53.20;25.20;;;;;;;-4.62;89.62;100590.73;102901;1256;139053;-69
2024/01/11 08:12:38;;;;;;;56.80;25.20;;;;;;;-4.56;89.56;100593.98;103693;1255;113307;-68
2024/01/11 08:15:06;;;;;;;55.30;23.00;;;;;;;-4.51;89.57;100595.17;102904;1258;139472;-68
2024/01/11 08:17:33;;;;;;;54.40;23.50;;;;;;;-4.46;89.44;100603.17;103210;1260;97938;-67
2024/01/11 08:20:00;;;;;;;60.70;24.50;;;;;;;-4.45;89.72;100593.36;103090;1256;108158;-67
2024/01/11 08:22:33;;;;;;;58.10;24.20;;;;;;;-4.43;89.46;100599.54;102884;1256;139059;-68
2024/01/11 08:25:00;;;;;;;54.40;24.50;;;;;;;-4.40;89.61;100599.98;102962;1258;111810;-67
2024/01/11 08:27:27;;;;;;;60.90;24.20;;;;;;;-4.36;89.66;100602.31;102930;1257;139031;-67
2024/01/11 08:29:55;;;;;;;54.60;25.10;;;;;;;-4.31;89.93;100600.29;103045;1258;97907;-67
2024/01/11 08:32:21;;;;;;;60.60;24.80;;;;;;;-4.30;89.64;100606.08;103091;1258;108195;-68
2024/01/11 08:34:59;;;;;;;52.40;23.90;;;;;;;-4.29;89.52;100600.17;102228;1256;1003004;-68
2024/01/11 08:37:26;;;;;;;51.60;24.50;;;;;;;-4.22;89.81;100603.79;103090;1256;112098;-67
2024/01/11 08:39:53;;;;;;;55.70;24.30;;;;;;;-4.18;89.77;100607.63;102816;1256;138761;-68
2024/01/11 08:42:20;;;;;;;50.00;22.70;;;;;;;-4.15;90.13;100610.14;103117;1256;97804;-68
2024/01/11 08:44:47;;;;;;;54.70;24.40;;;;;;;-4.09;89.56;100608.98;102620;1259;1002887;-67
2024/01/11 08:47:14;;;;;;;62.80;25.60;;;;;;;-4.05;89.65;100604.52;103034;1258;97813;-69
2024/01/11 08:49:42;;;;;;;62.20;25.90;;;;;;;-4.03;89.83;100605.27;103054;1258;111425;-69
2024/01/11 08:52:10;;;;;;;67.70;26.70;;;;;;;-4.01;89.58;100602.96;102936;1258;138084;-66
2024/01/11 08:54:37;;;;;;;77.20;27.70;;;;;;;-4.01;89.32;100601.77;102992;1258;97796;-72
2024/01/11 08:57:04;;;;;;;64.90;27.00;;;;;;;-4.03;89.58;100600.50;102875;1255;138028;-70
2024/01/11 08:59:32;;;;;;;69.10;27.70;;;;;;;-4.04;89.47;100598.27;102190;1260;1003347;-71
2024/01/11 09:02:00;;;;;;;68.10;27.40;;;;;;;-4.02;89.85;100590.69;103011;1256;112013;-68
2024/01/11 09:04:40;;;;;;;62.70;26.00;;;;;;;-4.04;90.10;100588.42;102972;1258;138940;-69
2024/01/11 09:07:07;;;;;;;61.30;25.40;;;;;;;-4.02;89.66;100595.29;102913;1260;97724;-69
2024/01/11 09:09:35;;;;;;;54.20;25.00;;;;;;;-4.01;90.10;100591.89;102914;1257;138925;-71
2024/01/11 09:12:14;;;;;;;51.80;24.20;;;;;;;-4.01;89.91;100590.55;102946;1258;97702;-68
2024/01/11 09:14:41;;;;;;;52.70;24.30;;;;;;;-3.99;90.23;100588.73;102282;1256;1002646;-69
2024/01/11 09:17:08;;;;;;;50.50;23.60;;;;;;;-3.99;89.91;100584.50;103061;1256;107247;-69
2024/01/11 09:19:37;;;;;;;49.60;24.90;;;;;;;-4.02;89.91;100577.78;103166;1259;97710;-66
2024/01/11 09:22:04;;;;;;;48.90;22.10;;;;;;;-4.01;89.96;100581.72;103227;1258;138564;-63
2024/01/11 09:24:32;;;;;;;46.00;22.10;;;;;;;-4.00;89.91;100580.73;102901;1259;97792;-66
2024/01/11 09:27:04;;;;;;;42.10;21.80;;;;;;;-3.98;89.78;100576.55;102944;1257;139246;-65
2024/01/11 09:29:31;;;;;;;41.00;19.70;;;;;;;-3.98;89.91;100565.84;103046;1257;108446;-65
2024/01/11 09:31:59;;;;;;;42.80;19.80;;;;;;;-3.95;89.84;100560.51;103614;1257;98342;-64
2024/01/11 09:34:26;;;;;;;38.90;19.60;;;;;;;-3.87;89.91;100558.89;103369;1256;140656;-65
2024/01/11 09:36:55;;;;;;;39.50;20.10;;;;;;;-3.78;90.01;100548.80;103073;1258;97792;-64
2024/01/11 09:39:23;;;;;;;41.90;20.40;;;;;;;-3.66;89.71;100548.65;103178;1256;139989;-66
2024/01/11 09:41:58;;;;;;;40.50;20.70;;;;;;;-3.52;89.98;100545.83;103013;1259;107183;-65
2024/01/11 09:44:26;;;;;;;42.40;20.80;;;;;;;-3.43;89.75;100537.09;102891;1258;97801;-66
2024/01/11 09:46:54;;;;;;;41.60;21.60;;;;;;;-3.33;89.63;100527.86;102757;1260;137720;-66
2024/01/11 09:49:22;;;;;;;46.90;22.80;;;;;;;-3.27;89.39;100523.07;103204;1260;98217;-62
2024/01/11 09:51:51;;;;;;;44.40;22.90;;;;;;;-3.27;89.04;100523.91;102947;1256;138072;-65
2024/01/11 09:54:21;;;;;;;46.50;23.10;;;;;;;-3.30;88.83;100523.68;102821;1261;107970;-64
2024/01/11 09:56:48;;;;;;;44.80;21.60;;;;;;;-3.29;88.93;100515.55;104188;1257;140392;-65
2024/01/11 09:59:18;;;;;;;40.60;21.30;;;;;;;-3.30;88.62;100522.31;103934;1259;108982;-65
2024/01/11 10:01:45;;;;;;;42.50;22.30;;;;;;;-3.30;88.58;100522.32;102393;1260;1002632;-64
2024/01/11 10:04:13;;;;;;;46.40;23.30;;;;;;;-3.30;88.93;100515.85;102902;1257;139127;-66
2024/01/11 10:06:41;;;;;;;46.30;23.10;;;;;;;-3.30;88.81;100516.39;102881;1258;110185;-64
2024/01/11 10:09:09;;;;;;;45.50;22.80;;;;;;;-3.30;89.00;100511.77;102170;1255;1003545;-64
2024/01/11 10:11:37;;;;;;;43.80;22.70;;;;;;;-3.31;88.98;100506.66;103077;1260;107532;-65
2024/01/11 10:14:05;;;;;;;43.00;23.30;;;;;;;-3.33;89.21;100506.27;103046;1259;97788;-65
2024/01/11 10:16:32;;;;;;;45.10;21.70;;;;;;;-3.32;89.23;100497.93;103366;1259;138528;-64
2024/01/11 10:18:59;;;;;;;46.40;21.80;;;;;;;-3.33;89.19;100500.97;103077;1258;107373;-65
2024/01/11 10:21:28;;;;;;;43.60;22.30;;;;;;;-3.30;89.39;100502.59;102936;1260;138880;-66
2024/01/11 10:23:55;;;;;;;46.10;22.40;;;;;;;-3.26;89.60;100507.98;102565;1257;1002610;-67
2024/01/11 10:26:23;;;;;;;44.30;22.70;;;;;;;-3.23;89.69;100510.11;102913;1256;98378;-67
2024/01/11 10:28:50;;;;;;;50.00;24.90;;;;;;;-3.20;89.61;100510.36;102190;1258;1003068;-68
2024/01/11 10:31:17;;;;;;;47.60;24.20;;;;;;;-3.18;89.62;100509.55;103083;1259;107700;-67
2024/01/11 10:33:45;;;;;;;51.70;25.40;;;;;;;-3.18;89.62;100513.65;103016;1255;139008;-66
2024/01/11 10:36:13;;;;;;;47.50;24.30;;;;;;;-3.17;89.45;100505.86;102985;1258;108813;-65
2024/01/11 10:38:42;;;;;;;53.70;25.80;;;;;;;-3.14;89.46;100508.33;103143;1259;97715;-65
2024/01/11 10:41:09;;;;;;;49.70;26.30;;;;;;;-3.13;89.28;100509.18;103817;1260;110918;-65
2024/01/11 10:43:39;;;;;;;56.40;27.10;;;;;;;-3.11;89.66;100511.63;102945;1259;108419;-65
2024/01/11 10:46:07;;;;;;;58.90;27.30;;;;;;;-3.09;89.63;100499.95;102870;1257;140204;-66
2024/01/11 10:48:39;;;;;;;51.70;25.30;;;;;;;-3.08;89.61;100495.55;102811;1260;108204;-66
2024/01/11 10:51:10;;;;;;;45.40;23.70;;;;;;;-3.07;90.11;100489.96;102826;1258;139603;-67
2024/01/11 10:53:45;;;;;;;50.20;23.70;;;;;;;-3.01;89.73;100489.77;102968;1259;112672;-67
2024/01/11 10:56:14;;;;;;;47.70;23.30;;;;;;;-2.95;90.12;100492.30;103482;1256;109209;-66